createdAt,value
2019-04-16T00:01:34.522Z,4.73
2019-04-16T00:04:09.287Z,5.03
2019-04-16T00:06:57.202Z,4.60
2019-04-16T00:09:33.071Z,5.07
2019-04-16T00:12:21.124Z,5.03
2019-04-16T00:14:49.856Z,4.70
2019-04-16T00:17:18.709Z,4.80
2019-04-16T00:19:47.623Z,4.80
2019-04-16T00:22:35.429Z,4.77
2019-04-16T00:25:04.341Z,4.70
2019-04-16T00:27:33.098Z,4.77
2019-04-16T00:30:04.867Z,4.43
2019-04-16T00:32:32.309Z,4.60
2019-04-16T00:35:01.111Z,5.03
2019-04-16T00:37:29.879Z,4.90
2019-04-16T00:39:58.644Z,4.63
2019-04-16T00:42:27.422Z,4.90
2019-04-16T00:44:56.159Z,4.73
2019-04-16T00:47:24.911Z,4.33
2019-04-16T00:49:57.716Z,4.60
2019-04-16T00:52:24.263Z,4.67
2019-04-16T00:54:53.014Z,4.43
2019-04-16T00:57:21.767Z,4.97
2019-04-16T00:59:55.108Z,4.70
2019-04-16T01:02:21.167Z,4.80
2019-04-16T01:04:49.922Z,4.60
2019-04-16T01:07:18.673Z,4.77
2019-04-16T01:09:47.431Z,4.20
2019-04-16T01:12:16.216Z,4.40
2019-04-16T01:14:44.965Z,4.63
2019-04-16T01:17:14.199Z,4.63
2019-04-16T01:19:43.041Z,4.70
2019-04-16T01:22:15.704Z,4.70
2019-04-16T01:24:42.349Z,4.77
2019-04-16T01:27:11.161Z,4.60
2019-04-16T01:29:39.912Z,4.37
2019-04-16T01:32:26.854Z,4.27
2019-04-16T01:35:18.583Z,4.77
2019-04-16T01:38:03.687Z,4.53
2019-04-16T01:40:47.373Z,4.43
2019-04-16T01:43:17.233Z,5.00
2019-04-16T01:45:46.066Z,4.70
2019-04-16T01:48:14.817Z,4.53
2019-04-16T01:50:44.424Z,4.70
2019-04-16T01:53:13.300Z,4.27
2019-04-16T01:55:42.546Z,4.37
2019-04-16T01:58:11.631Z,4.57
2019-04-16T02:00:40.455Z,4.33
2019-04-16T02:03:09.247Z,4.73
2019-04-16T02:05:38.059Z,4.40
2019-04-16T02:08:06.861Z,4.70
2019-04-16T02:10:38.473Z,4.37
2019-04-16T02:13:06.259Z,4.60
2019-04-16T02:15:35.093Z,4.30
2019-04-16T02:18:04.003Z,4.53
2019-04-16T02:20:32.936Z,4.50
2019-04-16T02:23:01.785Z,3.73
2019-04-16T02:25:30.571Z,4.30
2019-04-16T02:27:59.309Z,4.27
2019-04-16T02:30:28.125Z,4.00
2019-04-16T02:32:56.922Z,4.20
2019-04-16T02:35:25.672Z,4.60
2019-04-16T02:37:54.524Z,4.30
2019-04-16T02:40:23.275Z,4.17
2019-04-16T02:42:52.048Z,4.40
2019-04-16T02:45:23.705Z,4.40
2019-04-16T02:47:51.290Z,4.03
2019-04-16T02:50:30.522Z,4.67
2019-04-16T02:53:01.212Z,3.87
2019-04-16T02:55:55.152Z,4.50
2019-04-16T02:58:37.685Z,4.30
2019-04-16T03:01:24.120Z,4.63
2019-04-16T03:04:01.470Z,4.20
2019-04-16T03:06:31.994Z,4.23
2019-04-16T03:09:00.663Z,3.93
2019-04-16T03:11:29.531Z,4.27
2019-04-16T03:13:59.353Z,4.17
2019-04-16T03:16:46.062Z,4.30
2019-04-16T03:19:20.282Z,4.30
2019-04-16T03:21:49.202Z,4.43
2019-04-16T03:24:17.949Z,4.10
2019-04-16T03:26:47.582Z,4.50
2019-04-16T03:29:17.274Z,3.83
2019-04-16T03:31:46.037Z,4.53
2019-04-16T03:34:14.991Z,4.17
2019-04-16T03:36:43.832Z,4.40
2019-04-16T03:39:13.926Z,3.77
2019-04-16T03:41:43.238Z,4.17
2019-04-16T03:44:12.038Z,4.43
2019-04-16T03:46:46.000Z,4.20
2019-04-16T03:49:11.561Z,4.53
2019-04-16T03:51:40.293Z,4.70
2019-04-16T03:54:09.147Z,4.50
2019-04-16T03:56:37.896Z,4.50
2019-04-16T03:59:10.771Z,4.40
2019-04-16T04:01:37.201Z,4.93
2019-04-16T04:04:05.972Z,4.27
2019-04-16T04:06:36.557Z,4.63
2019-04-16T04:09:06.483Z,5.10
2019-04-16T04:11:40.682Z,4.80
2019-04-16T04:14:06.112Z,4.90
2019-04-16T04:16:34.948Z,4.77
2019-04-16T04:19:03.715Z,4.63
2019-04-16T04:21:32.476Z,4.63
2019-04-16T04:24:01.281Z,4.40
2019-04-16T04:26:30.130Z,4.33
2019-04-16T04:28:59.040Z,4.87
2019-04-16T04:31:32.057Z,4.73
2019-04-16T04:33:58.471Z,4.40
2019-04-16T04:36:28.404Z,4.87
2019-04-16T04:38:57.376Z,4.80
2019-04-16T04:41:26.223Z,4.63
2019-04-16T04:43:55.043Z,4.80
2019-04-16T04:46:23.802Z,5.07
2019-04-16T04:48:55.328Z,4.47
2019-04-16T04:51:22.997Z,4.87
2019-04-16T04:53:52.060Z,4.60
2019-04-16T04:56:20.850Z,5.07
2019-04-16T04:58:49.606Z,4.53
2019-04-16T05:01:18.370Z,4.70
2019-04-16T05:04:06.524Z,5.13
2019-04-16T05:06:37.236Z,4.90
2019-04-16T05:09:07.111Z,4.70
2019-04-16T05:11:36.028Z,4.40
2019-04-16T05:14:04.794Z,4.50
2019-04-16T05:16:34.465Z,4.53
2019-04-16T05:19:04.224Z,4.67
2019-04-16T05:21:33.077Z,5.27
2019-04-16T05:24:01.866Z,4.33
2019-04-16T05:26:33.639Z,4.47
2019-04-16T05:29:16.561Z,4.57
2019-04-16T05:31:42.471Z,4.67
2019-04-16T05:34:12.230Z,4.40
2019-04-16T05:36:46.253Z,4.50
2019-04-16T05:39:11.466Z,4.80
2019-04-16T05:41:40.194Z,4.50
2019-04-16T05:44:08.971Z,4.27
2019-04-16T05:46:38.368Z,4.27
2019-04-16T05:49:07.366Z,4.73
2019-04-16T05:51:36.108Z,4.97
2019-04-16T05:54:18.076Z,4.27
2019-04-16T05:56:52.329Z,4.17
2019-04-16T05:59:21.408Z,4.53
2019-04-16T06:01:59.418Z,4.37
2019-04-16T06:04:28.262Z,4.30
2019-04-16T06:06:57.006Z,4.10
2019-04-16T06:09:25.849Z,4.40
2019-04-16T06:11:54.617Z,4.53
2019-04-16T06:14:34.551Z,4.40
2019-04-16T06:17:25.203Z,4.20
2019-04-16T06:20:19.103Z,3.90
2019-04-16T06:23:14.355Z,4.47
2019-04-16T06:25:47.806Z,4.40
2019-04-16T06:28:34.573Z,4.30
2019-04-16T06:31:17.950Z,4.60
2019-04-16T06:34:09.143Z,4.27
2019-04-16T06:36:50.627Z,4.30
2019-04-16T06:39:36.990Z,4.53
2019-04-16T06:42:23.188Z,4.90
2019-04-16T06:44:56.641Z,4.50
2019-04-16T06:47:42.099Z,4.50
2019-04-16T06:50:45.242Z,4.40
2019-04-16T06:53:19.869Z,4.30
2019-04-16T06:56:20.255Z,4.50
2019-04-16T06:59:16.672Z,4.30
2019-04-16T07:02:18.029Z,4.50
2019-04-16T07:05:08.982Z,4.43
2019-04-16T07:07:59.626Z,3.80
2019-04-16T07:10:44.094Z,4.37
2019-04-16T07:13:11.480Z,4.00
2019-04-16T07:15:40.488Z,4.63
2019-04-16T07:18:09.326Z,3.80
2019-04-16T07:20:38.070Z,4.07
2019-04-16T07:23:06.843Z,4.20
2019-04-16T07:25:41.708Z,4.10
2019-04-16T07:28:26.491Z,4.00
2019-04-16T07:31:32.958Z,4.00
2019-04-16T07:34:16.203Z,4.33
2019-04-16T07:37:07.639Z,4.50
2019-04-16T07:39:54.113Z,4.40
2019-04-16T07:42:33.303Z,4.30
2019-04-16T07:45:24.352Z,4.70
2019-04-16T07:48:06.751Z,4.43
2019-04-16T07:50:54.818Z,4.70
2019-04-16T07:53:47.094Z,4.73
2019-04-16T07:56:24.460Z,4.60
2019-04-16T07:58:53.195Z,4.57
2019-04-16T08:01:21.941Z,4.80
2019-04-16T08:03:50.799Z,4.33
2019-04-16T08:06:19.556Z,5.03
2019-04-16T08:08:48.367Z,4.57
2019-04-16T08:11:17.210Z,4.17
2019-04-16T08:13:46.332Z,4.50
2019-04-16T08:16:15.161Z,4.40
2019-04-16T08:18:52.834Z,4.70
2019-04-16T08:21:22.662Z,4.60
2019-04-16T08:24:00.915Z,4.83
2019-04-16T08:26:29.658Z,4.40
2019-04-16T08:28:58.506Z,4.57
2019-04-16T08:31:28.912Z,4.53
2019-04-16T08:33:57.747Z,4.87
2019-04-16T08:36:26.585Z,4.57
2019-04-16T08:38:55.433Z,4.60
2019-04-16T08:41:24.290Z,4.50
2019-04-16T08:43:53.065Z,4.80
2019-04-16T08:46:21.909Z,4.53
2019-04-16T08:48:54.100Z,4.50
2019-04-16T08:51:30.149Z,4.80
2019-04-16T08:53:51.620Z,4.23
2019-04-16T08:56:20.371Z,4.77
2019-04-16T08:58:49.239Z,4.67
2019-04-16T09:01:23.587Z,4.53
2019-04-16T09:03:51.719Z,4.23
2019-04-16T09:06:20.479Z,4.03
2019-04-16T09:09:13.435Z,4.57
2019-04-16T09:11:40.633Z,4.73
2019-04-16T09:14:09.409Z,4.73
2019-04-16T09:16:47.515Z,4.90
2019-04-16T09:19:17.573Z,4.47
2019-04-16T09:21:46.406Z,4.20
2019-04-16T09:24:28.261Z,4.50
2019-04-16T09:27:16.043Z,4.13
2019-04-16T09:30:02.580Z,3.83
2019-04-16T09:32:39.452Z,4.33
2019-04-16T09:35:20.967Z,4.20
2019-04-16T09:38:20.901Z,4.10
2019-04-16T09:41:12.150Z,4.23
2019-04-16T09:43:43.810Z,4.50
2019-04-16T09:46:21.164Z,4.10
2019-04-16T09:48:43.070Z,4.10
2019-04-16T09:51:12.189Z,4.03
2019-04-16T09:53:41.073Z,4.33
2019-04-16T09:56:31.510Z,4.00
2019-04-16T09:59:05.722Z,4.30
2019-04-16T10:01:46.115Z,3.90
2019-04-16T10:04:17.242Z,4.07
2019-04-16T10:06:46.166Z,4.20
2019-04-16T10:09:19.855Z,4.17
2019-04-16T10:11:45.648Z,4.07
2019-04-16T10:14:14.630Z,4.60
2019-04-16T10:16:43.595Z,4.30
2019-04-16T10:19:12.715Z,3.90
2019-04-16T10:21:41.737Z,4.40
2019-04-16T10:24:29.589Z,4.20
2019-04-16T10:26:59.996Z,4.10
2019-04-16T10:29:29.464Z,3.73
2019-04-16T10:31:58.325Z,3.77
2019-04-16T10:34:27.239Z,3.80
2019-04-16T10:36:56.071Z,4.10
2019-04-16T10:39:32.497Z,3.97
2019-04-16T10:42:12.788Z,4.10
2019-04-16T10:44:59.427Z,3.77
2019-04-16T10:47:40.344Z,4.00
2019-04-16T10:50:40.608Z,3.80
2019-04-16T10:53:23.067Z,3.80
2019-04-16T10:56:10.408Z,3.63
2019-04-16T10:58:57.063Z,4.10
2019-04-16T11:01:35.166Z,3.80
2019-04-16T11:04:21.868Z,4.10
2019-04-16T11:06:51.594Z,3.67
2019-04-16T11:09:20.350Z,3.73
2019-04-16T11:11:49.180Z,3.80
2019-04-16T11:14:17.994Z,3.80
2019-04-16T11:16:49.309Z,3.70
2019-04-16T11:19:18.142Z,3.63
2019-04-16T11:21:47.184Z,3.60
2019-04-16T11:24:16.364Z,3.90
2019-04-16T11:26:45.270Z,3.50
2019-04-16T11:29:14.028Z,3.37
2019-04-16T11:31:42.880Z,3.20
2019-04-16T11:34:12.468Z,3.33
2019-04-16T11:36:41.311Z,3.47
2019-04-16T11:39:11.543Z,3.83
2019-04-16T11:41:40.437Z,3.90
2019-04-16T11:44:15.671Z,3.57
2019-04-16T11:46:39.885Z,3.50
2019-04-16T11:49:08.827Z,3.47
2019-04-16T11:51:37.768Z,3.60
2019-04-16T11:54:06.727Z,3.73
2019-04-16T11:56:35.750Z,3.50
2019-04-16T11:59:04.656Z,3.30
2019-04-16T12:01:55.377Z,3.80
2019-04-16T12:04:43.267Z,3.63
2019-04-16T12:07:30.288Z,3.33
2019-04-16T12:10:24.226Z,3.50
2019-04-16T12:13:03.258Z,3.20
2019-04-16T12:15:41.805Z,3.40
2019-04-16T12:18:21.126Z,3.60
2019-04-16T12:21:06.448Z,3.33
2019-04-16T12:24:01.588Z,3.10
2019-04-16T12:26:52.710Z,3.30
2019-04-16T12:29:43.796Z,3.43
2019-04-16T12:32:37.887Z,3.23
2019-04-16T12:35:28.021Z,3.37
2019-04-16T12:38:18.557Z,3.30
2019-04-16T12:40:53.901Z,3.13
2019-04-16T12:43:34.487Z,3.40
2019-04-16T12:46:15.573Z,3.27
2019-04-16T12:49:06.583Z,3.17
2019-04-16T12:51:51.709Z,3.20
2019-04-16T12:54:38.573Z,3.10
2019-04-16T12:57:46.917Z,3.33
2019-04-16T13:00:17.012Z,3.20
2019-04-16T13:03:04.849Z,3.30
2019-04-16T13:05:56.025Z,3.30
2019-04-16T13:08:53.642Z,3.37
2019-04-16T13:11:39.919Z,2.80
2019-04-16T13:14:40.046Z,3.13
2019-04-16T13:17:27.851Z,3.00
2019-04-16T13:20:06.334Z,3.10
2019-04-16T13:22:42.486Z,2.97
2019-04-16T13:25:19.999Z,3.30
2019-04-16T13:27:50.864Z,3.20
2019-04-16T13:30:19.572Z,3.50
2019-04-16T13:32:48.300Z,3.13
2019-04-16T13:35:17.143Z,2.80
2019-04-16T13:37:45.902Z,3.30
2019-04-16T13:40:15.735Z,3.03
2019-04-16T13:42:44.523Z,3.33
2019-04-16T13:45:25.595Z,3.00
2019-04-16T13:47:54.553Z,3.10
2019-04-16T13:50:25.830Z,3.10
2019-04-16T13:53:00.567Z,3.00
2019-04-16T13:55:38.333Z,3.13
2019-04-16T13:58:25.174Z,3.30
2019-04-16T14:00:58.581Z,3.00
2019-04-16T14:03:27.345Z,3.23
2019-04-16T14:05:56.113Z,2.83
2019-04-16T14:08:24.885Z,3.40
2019-04-16T14:10:53.993Z,2.73
2019-04-16T14:13:22.735Z,3.10
2019-04-16T14:15:51.679Z,3.20
2019-04-16T14:18:21.865Z,3.00
2019-04-16T14:20:50.858Z,3.10
2019-04-16T14:23:19.641Z,3.10
2019-04-16T14:25:48.421Z,2.53
2019-04-16T14:28:18.127Z,3.20
2019-04-16T14:30:49.967Z,3.00
2019-04-16T14:33:35.775Z,2.90
2019-04-16T14:36:05.250Z,3.20
2019-04-16T14:38:39.860Z,3.20
2019-04-16T14:41:11.939Z,3.30
2019-04-16T14:43:42.183Z,3.13
2019-04-16T14:46:11.081Z,3.90
2019-04-16T14:48:59.251Z,3.10
2019-04-16T14:51:28.081Z,3.20
2019-04-16T14:54:08.718Z,3.10
2019-04-16T14:56:47.015Z,3.00
2019-04-16T14:59:44.234Z,3.17
2019-04-16T15:02:34.986Z,3.10
2019-04-16T15:05:07.878Z,3.00
2019-04-16T15:07:54.342Z,2.97
2019-04-16T15:10:51.397Z,3.20
2019-04-16T15:13:31.025Z,3.00
2019-04-16T15:16:21.270Z,2.80
2019-04-16T15:19:05.633Z,2.97
2019-04-16T15:21:52.374Z,2.93
2019-04-16T15:24:31.972Z,3.27
2019-04-16T15:27:31.689Z,2.80
2019-04-16T15:30:17.424Z,3.30
2019-04-16T15:33:06.816Z,2.90
2019-04-16T15:35:43.674Z,3.00
2019-04-16T15:38:37.340Z,3.20
2019-04-16T15:41:26.244Z,3.03
2019-04-16T15:44:23.608Z,3.20
2019-04-16T15:47:15.377Z,3.10
2019-04-16T15:49:49.857Z,3.10
2019-04-16T15:52:37.327Z,3.37
2019-04-16T15:55:24.676Z,3.53
2019-04-16T15:58:21.897Z,3.10
2019-04-16T16:01:06.779Z,3.10
2019-04-16T16:04:07.046Z,3.10
2019-04-16T16:06:41.342Z,3.20
2019-04-16T16:09:47.600Z,3.10
2019-04-16T16:12:24.610Z,3.87
2019-04-16T16:14:53.413Z,3.50
2019-04-16T16:17:23.312Z,3.93
2019-04-16T16:19:52.174Z,3.40
2019-04-16T16:22:20.946Z,4.07
2019-04-16T16:24:49.787Z,3.63
2019-04-16T16:27:18.788Z,3.30
2019-04-16T16:29:47.540Z,3.37
2019-04-16T16:32:16.390Z,3.40
2019-04-16T16:34:45.540Z,3.77
2019-04-16T16:37:14.297Z,3.67
2019-04-16T16:39:43.055Z,3.60
2019-04-16T16:42:11.892Z,3.30
2019-04-16T16:44:40.695Z,3.27
2019-04-16T16:47:28.602Z,3.40
2019-04-16T16:49:57.540Z,3.13
2019-04-16T16:52:49.933Z,3.40
2019-04-16T16:55:24.222Z,3.50
2019-04-16T16:57:58.982Z,3.70
2019-04-16T17:00:56.353Z,3.43
2019-04-16T17:03:42.559Z,3.43
2019-04-16T17:06:11.849Z,3.13
2019-04-16T17:08:40.629Z,3.40
2019-04-16T17:11:16.729Z,3.17
2019-04-16T17:13:39.952Z,3.17
2019-04-16T17:16:13.556Z,3.40
2019-04-16T17:18:40.388Z,3.27
2019-04-16T17:21:09.160Z,2.97
2019-04-16T17:23:38.091Z,3.30
2019-04-16T17:26:06.856Z,3.60
2019-04-16T17:28:35.699Z,3.37
2019-04-16T17:31:04.916Z,3.20
2019-04-16T17:33:34.162Z,3.10
2019-04-16T17:36:02.936Z,3.30
2019-04-16T17:38:33.946Z,3.20
2019-04-16T17:41:03.832Z,3.43
2019-04-16T17:44:00.507Z,2.83
2019-04-16T17:46:31.833Z,2.93
2019-04-16T17:49:21.899Z,3.20
2019-04-16T17:52:09.807Z,2.93
2019-04-16T17:55:04.053Z,3.00
2019-04-16T17:57:42.718Z,2.77
2019-04-16T18:00:45.905Z,2.80
2019-04-16T18:03:37.687Z,2.90
2019-04-16T18:06:23.505Z,3.20
2019-04-16T18:09:09.925Z,2.83
2019-04-16T18:11:57.774Z,2.97
2019-04-16T18:14:43.912Z,2.80
2019-04-16T18:17:26.727Z,2.73
2019-04-16T18:20:16.202Z,2.70
2019-04-16T18:22:52.545Z,3.00
2019-04-16T18:25:54.873Z,2.60
2019-04-16T18:28:14.420Z,2.37
2019-04-16T18:30:46.793Z,2.63
2019-04-16T18:33:22.524Z,2.70
2019-04-16T18:36:10.410Z,2.60
2019-04-16T18:38:49.095Z,2.60
2019-04-16T18:41:55.406Z,2.60
2019-04-16T18:44:34.532Z,2.50
2019-04-16T18:47:20.752Z,2.50
2019-04-16T18:49:51.360Z,2.43
2019-04-16T18:52:20.148Z,2.47
2019-04-16T18:54:49.956Z,3.03
2019-04-16T18:57:18.924Z,2.80
2019-04-16T18:59:47.785Z,2.20
2019-04-16T19:02:16.619Z,2.47
2019-04-16T19:04:45.396Z,2.20
2019-04-16T19:07:14.198Z,2.53
2019-04-16T19:09:43.095Z,2.83
2019-04-16T19:12:12.469Z,2.67
2019-04-16T19:14:41.347Z,2.40
2019-04-16T19:17:10.524Z,2.20
2019-04-16T19:19:44.591Z,2.63
2019-04-16T19:22:10.222Z,2.60
2019-04-16T19:24:39.118Z,2.77
2019-04-16T19:27:08.063Z,2.43
2019-04-16T19:29:36.908Z,2.60
2019-04-16T19:32:05.726Z,2.40
2019-04-16T19:34:34.648Z,2.40
2019-04-16T19:37:03.819Z,2.37
2019-04-16T19:39:32.834Z,2.30
2019-04-16T19:42:01.845Z,2.37
2019-04-16T19:44:33.532Z,2.20
2019-04-16T19:47:01.407Z,2.33
2019-04-16T19:49:30.261Z,2.27
2019-04-16T19:51:59.032Z,2.30
2019-04-16T19:54:31.525Z,2.30
2019-04-16T19:56:58.395Z,2.43
2019-04-16T19:59:27.179Z,2.20
2019-04-16T20:02:00.231Z,2.50
2019-04-16T20:04:26.737Z,2.27
2019-04-16T20:06:59.676Z,2.20
2019-04-16T20:09:26.269Z,2.23
2019-04-16T20:11:56.377Z,2.40
2019-04-16T20:14:25.580Z,2.17
2019-04-16T20:16:54.402Z,2.23
2019-04-16T20:19:23.182Z,2.27
2019-04-16T20:21:52.049Z,2.30
2019-04-16T20:24:20.811Z,2.20
2019-04-16T20:26:49.574Z,2.10
2019-04-16T20:29:18.352Z,2.00
2019-04-16T20:31:47.268Z,2.20
2019-04-16T20:34:18.038Z,2.00
2019-04-16T20:36:46.622Z,2.17
2019-04-16T20:39:15.394Z,2.00
2019-04-16T20:41:44.626Z,2.20
2019-04-16T20:44:13.473Z,1.90
2019-04-16T20:46:42.303Z,2.10
2019-04-16T20:49:16.475Z,2.10
2019-04-16T20:51:41.743Z,2.10
2019-04-16T20:54:13.831Z,2.07
2019-04-16T20:56:41.076Z,2.03
2019-04-16T20:59:09.822Z,2.07
2019-04-16T21:01:38.664Z,1.93
2019-04-16T21:04:07.580Z,2.10
2019-04-16T21:06:40.793Z,2.07
2019-04-16T21:09:07.522Z,1.90
2019-04-16T21:11:40.429Z,1.97
2019-04-16T21:14:06.894Z,1.80
2019-04-16T21:16:35.775Z,2.20
2019-04-16T21:19:04.599Z,2.10
2019-04-16T21:21:33.531Z,2.07
2019-04-16T21:24:06.600Z,2.07
2019-04-16T21:26:32.983Z,1.73
2019-04-16T21:29:21.680Z,1.90
2019-04-16T21:31:54.878Z,1.90
2019-04-16T21:34:36.170Z,1.90
2019-04-16T21:37:22.765Z,2.03
2019-04-16T21:39:59.815Z,1.93
2019-04-16T21:42:28.614Z,1.80
2019-04-16T21:44:57.431Z,2.10
2019-04-16T21:47:26.177Z,1.70
2019-04-16T21:49:54.939Z,2.00
2019-04-16T21:52:23.964Z,1.80
2019-04-16T21:54:52.835Z,2.00
2019-04-16T21:57:21.650Z,1.90
2019-04-16T21:59:56.660Z,1.80
2019-04-16T22:02:26.325Z,1.97
2019-04-16T22:04:55.073Z,1.90
2019-04-16T22:07:24.596Z,1.90
2019-04-16T22:09:54.379Z,1.80
2019-04-16T22:12:23.235Z,2.00
2019-04-16T22:14:54.277Z,1.90
2019-04-16T22:17:22.658Z,1.70
2019-04-16T22:19:54.257Z,1.67
2019-04-16T22:22:21.927Z,1.40
2019-04-16T22:24:51.804Z,1.70
2019-04-16T22:27:21.249Z,1.97
2019-04-16T22:29:50.107Z,1.70
2019-04-16T22:32:18.864Z,1.80
2019-04-16T22:34:47.608Z,2.00
2019-04-16T22:37:16.618Z,1.83
2019-04-16T22:40:07.825Z,1.70
2019-04-16T22:42:43.977Z,1.87
2019-04-16T22:45:30.661Z,1.67
2019-04-16T22:47:59.801Z,1.67
2019-04-16T22:50:28.671Z,1.77
2019-04-16T22:52:57.440Z,1.50
2019-04-16T22:55:26.211Z,1.90
2019-04-16T22:57:55.046Z,1.70
2019-04-16T23:00:29.179Z,1.70
2019-04-16T23:02:58.027Z,1.60
2019-04-16T23:05:27.776Z,1.70
2019-04-16T23:07:57.271Z,1.60
2019-04-16T23:10:26.017Z,1.60
2019-04-16T23:12:59.487Z,1.60
2019-04-16T23:15:25.331Z,1.60
2019-04-16T23:17:54.106Z,1.50
2019-04-16T23:20:29.785Z,1.70
2019-04-16T23:22:53.511Z,1.70
2019-04-16T23:25:26.773Z,1.57
2019-04-16T23:27:52.849Z,1.80
2019-04-16T23:30:21.605Z,1.47
2019-04-16T23:32:50.336Z,1.50
2019-04-16T23:35:19.094Z,1.40
2019-04-16T23:37:47.863Z,1.60
2019-04-16T23:40:16.609Z,1.53
2019-04-16T23:43:08.147Z,1.77
2019-04-16T23:46:06.395Z,1.60
2019-04-16T23:49:09.583Z,1.50
2019-04-16T23:51:42.471Z,1.67
2019-04-16T23:54:20.809Z,1.50
2019-04-16T23:56:53.891Z,1.70
2019-04-16T23:59:35.887Z,1.40
